Time;durP1;ratioP1;P1;durP2;ratioP2;P2;SDS_P1;SDS_P2;PMS_P1;PMS_P2;Temp;Humidity;BMP_temperature;BMP_pressure;BME280_temperature;BME280_humidity;BME280_pressure;Samples;Min_cycle;Max_cycle;Signal;HPM_P1;HPM_P2
2022/11/03 00:00:10;;;;;;;6.30;1.90;;;8.00;99.90;;;;;;5029803;28;20278;-51
2022/11/03 00:02:38;;;;;;;3.47;1.83;;;8.00;99.90;;;;;;5030694;28;20218;-48
2022/11/03 00:07:47;;;;;;;4.90;1.77;;;8.00;99.90;;;;;;5034148;28;20293;-52
2022/11/03 00:10:14;;;;;;;4.90;2.00;;;8.00;99.90;;;;;;5026658;28;20203;-49
2022/11/03 00:12:40;;;;;;;7.20;2.67;;;8.00;99.90;;;;;;5032784;28;20640;-52
2022/11/03 00:15:10;;;;;;;5.17;1.60;;;8.00;99.90;;;;;;5027755;28;20191;-49
2022/11/03 00:17:37;;;;;;;8.27;2.33;;;8.00;99.90;;;;;;5018519;28;20226;-49
2022/11/03 00:20:04;;;;;;;5.03;2.00;;;8.00;99.90;;;;;;5026833;28;20198;-47
2022/11/03 00:22:32;;;;;;;11.40;2.37;;;8.00;99.90;;;;;;5032296;28;20210;-49
2022/11/03 00:25:00;;;;;;;4.67;2.57;;;8.00;99.90;;;;;;5030949;28;20196;-46
2022/11/03 00:27:27;;;;;;;8.33;2.20;;;8.00;99.90;;;;;;5043202;28;20223;-45
2022/11/03 00:29:53;;;;;;;6.27;1.90;;;8.00;99.90;;;;;;5034997;28;20680;-48
2022/11/03 00:32:22;;;;;;;4.30;2.30;;;8.00;99.90;;;;;;5023080;28;20251;-48
2022/11/03 00:34:49;;;;;;;4.37;1.93;;;8.00;99.90;;;;;;5034485;28;20691;-49
2022/11/03 00:37:16;;;;;;;3.23;2.17;;;8.00;99.90;;;;;;5040183;28;20955;-47
2022/11/03 00:39:43;;;;;;;4.33;2.17;;;7.90;99.90;;;;;;5042184;28;20206;-51
2022/11/03 00:42:10;;;;;;;5.43;2.03;;;7.90;99.90;;;;;;5036293;28;20191;-45
2022/11/03 00:44:36;;;;;;;5.40;2.13;;;7.90;99.90;;;;;;5036746;28;20588;-47
2022/11/03 00:47:03;;;;;;;6.17;2.07;;;7.90;99.90;;;;;;5039060;28;20187;-45
2022/11/03 00:49:32;;;;;;;4.90;1.90;;;7.90;99.90;;;;;;5022634;28;20567;-47
2022/11/03 00:51:59;;;;;;;8.80;2.40;;;7.80;99.90;;;;;;5039090;28;20423;-46
2022/11/03 00:54:25;;;;;;;9.40;2.30;;;7.80;99.90;;;;;;5040788;28;20226;-45
2022/11/03 00:56:52;;;;;;;6.30;1.90;;;7.80;99.90;;;;;;5034844;28;20726;-45
2022/11/03 00:59:19;;;;;;;5.67;2.03;;;7.80;99.90;;;;;;5036978;28;20294;-45
2022/11/03 01:01:46;;;;;;;7.97;2.67;;;7.80;99.90;;;;;;5041105;28;20203;-49
2022/11/03 01:07:00;;;;;;;7.63;2.77;;;7.80;99.90;;;;;;5038965;28;20194;-46
2022/11/03 01:09:29;;;;;;;6.70;2.23;;;7.70;99.90;;;;;;5042648;28;20206;-45
2022/11/03 01:11:58;;;;;;;4.80;2.20;;;7.70;99.90;;;;;;5034748;28;20678;-45
2022/11/03 01:14:27;;;;;;;5.47;1.90;;;7.70;99.90;;;;;;5036310;28;20215;-47
2022/11/03 01:16:54;;;;;;;7.73;1.93;;;7.70;99.90;;;;;;5039430;28;20274;-52
2022/11/03 01:19:21;;;;;;;4.67;2.03;;;7.70;99.90;;;;;;5026462;28;20235;-45
2022/11/03 01:21:48;;;;;;;6.67;2.30;;;7.70;99.90;;;;;;5035210;28;20231;-48
2022/11/03 01:24:16;;;;;;;4.30;2.00;;;7.70;99.90;;;;;;5035358;28;20219;-47
2022/11/03 01:26:43;;;;;;;6.13;2.10;;;7.70;99.90;;;;;;5036118;28;20203;-49
2022/11/03 01:29:10;;;;;;;7.30;2.33;;;7.70;99.90;;;;;;5034412;28;20210;-48
2022/11/03 01:31:37;;;;;;;5.20;2.13;;;7.70;99.90;;;;;;5037045;28;20203;-47
2022/11/03 01:34:03;;;;;;;5.17;1.83;;;7.70;99.90;;;;;;5037862;28;20212;-46
2022/11/03 01:36:30;;;;;;;7.17;2.00;;;7.70;99.90;;;;;;5030741;28;20219;-46
2022/11/03 01:38:57;;;;;;;8.47;2.40;;;7.70;99.90;;;;;;5042469;28;20203;-50
2022/11/03 01:41:27;;;;;;;7.33;2.50;;;7.70;99.90;;;;;;5046789;28;20203;-47
2022/11/03 01:44:27;;;;;;;6.77;1.83;;;7.70;99.90;;;;;;5036441;28;20231;-46
2022/11/03 01:46:59;;;;;;;4.90;2.00;;;7.70;99.90;;;;;;5037982;28;20204;-47
2022/11/03 01:49:31;;;;;;;7.57;2.30;;;7.70;99.90;;;;;;5038400;28;20206;-45
2022/11/03 01:52:06;;;;;;;6.43;1.83;;;7.70;99.90;;;;;;5021527;28;20211;-45
2022/11/03 01:54:37;;;;;;;5.20;1.80;;;7.70;99.90;;;;;;5040298;28;20304;-45
2022/11/03 01:57:09;;;;;;;10.93;2.07;;;7.70;99.90;;;;;;5036424;28;21055;-49
2022/11/03 01:59:37;;;;;;;4.50;1.80;;;7.70;99.90;;;;;;5040742;28;20215;-45
2022/11/03 02:02:03;;;;;;;6.00;2.60;;;7.70;99.90;;;;;;5033979;28;21297;-45
2022/11/03 02:04:33;;;;;;;8.27;2.17;;;7.70;99.90;;;;;;5037675;28;20216;-46
2022/11/03 02:07:10;;;;;;;7.63;2.30;;;7.70;99.90;;;;;;5025722;28;20224;-48
2022/11/03 02:09:37;;;;;;;5.67;2.17;;;7.70;99.90;;;;;;5040314;28;20206;-45
2022/11/03 02:12:07;;;;;;;5.20;2.00;;;7.70;99.90;;;;;;5041998;28;20188;-45
2022/11/03 02:14:37;;;;;;;3.53;1.73;;;7.70;99.90;;;;;;5038995;28;20230;-48
2022/11/03 02:17:08;;;;;;;3.73;1.90;;;7.70;99.90;;;;;;5035943;28;20216;-52
2022/11/03 02:19:40;;;;;;;7.30;2.07;;;7.70;99.90;;;;;;5046017;28;20196;-47
2022/11/03 02:22:31;;;;;;;4.93;1.73;;;7.70;99.90;;;;;;5027343;28;20211;-51
2022/11/03 02:25:08;;;;;;;6.03;1.67;;;7.70;99.90;;;;;;5040440;28;20195;-48
2022/11/03 02:27:36;;;;;;;3.97;1.90;;;7.70;99.90;;;;;;5039867;28;20525;-45
2022/11/03 02:30:04;;;;;;;3.70;2.10;;;7.70;99.90;;;;;;5036288;28;20202;-45
2022/11/03 02:32:38;;;;;;;4.33;1.60;;;7.70;99.90;;;;;;5045411;28;20536;-48
2022/11/03 02:35:11;;;;;;;6.03;2.07;;;7.70;99.90;;;;;;5037752;28;20195;-47
2022/11/03 02:37:43;;;;;;;5.27;2.30;;;7.70;99.90;;;;;;5043668;28;20207;-45
2022/11/03 02:40:14;;;;;;;6.10;2.43;;;7.70;99.90;;;;;;5033251;28;20207;-47
2022/11/03 02:42:46;;;;;;;4.50;1.57;;;7.70;99.90;;;;;;5044878;28;20210;-50
2022/11/03 02:45:17;;;;;;;5.20;1.97;;;7.70;99.90;;;;;;5037308;28;20210;-47
2022/11/03 02:47:45;;;;;;;3.57;1.40;;;7.70;99.90;;;;;;5042923;28;20191;-49
2022/11/03 02:50:12;;;;;;;5.80;1.93;;;7.70;99.90;;;;;;5043142;28;20191;-45
2022/11/03 02:52:41;;;;;;;5.13;1.90;;;7.70;99.90;;;;;;5044673;28;20196;-46
2022/11/03 02:55:14;;;;;;;6.07;1.87;;;7.70;99.90;;;;;;5026017;28;20215;-50
2022/11/03 02:57:49;;;;;;;6.17;1.77;;;7.70;99.90;;;;;;5044263;28;20219;-47
2022/11/03 03:00:17;;;;;;;4.23;1.27;;;7.70;99.90;;;;;;5027947;28;20701;-46
2022/11/03 03:02:52;;;;;;;4.57;2.03;;;7.70;99.90;;;;;;5037441;28;20200;-48
2022/11/03 03:05:23;;;;;;;2.93;1.60;;;7.80;99.90;;;;;;5043451;28;20643;-46
2022/11/03 03:07:55;;;;;;;5.20;1.53;;;7.80;99.90;;;;;;5034389;28;20203;-46
2022/11/03 03:10:25;;;;;;;2.90;1.70;;;7.80;99.90;;;;;;5030652;28;20199;-48
2022/11/03 03:12:57;;;;;;;3.10;1.57;;;7.80;99.90;;;;;;5040345;28;20211;-48
2022/11/03 03:15:29;;;;;;;5.57;1.60;;;7.80;99.90;;;;;;5039741;28;20222;-47
2022/11/03 03:18:05;;;;;;;5.23;1.40;;;7.80;99.90;;;;;;5035700;28;20947;-46
2022/11/03 03:20:39;;;;;;;6.20;1.60;;;7.80;99.90;;;;;;5044911;28;20604;-48
2022/11/03 03:23:13;;;;;;;4.30;1.60;;;7.80;99.90;;;;;;5037812;28;20218;-47
2022/11/03 03:25:43;;;;;;;5.33;1.63;;;7.80;99.90;;;;;;5023176;28;20195;-47
2022/11/03 03:28:16;;;;;;;4.83;1.73;;;7.80;99.90;;;;;;5037226;28;20191;-45
2022/11/03 03:30:44;;;;;;;5.57;1.70;;;7.70;99.90;;;;;;5041364;28;20204;-46
2022/11/03 03:33:13;;;;;;;2.70;1.63;;;7.70;99.90;;;;;;5039423;28;20207;-46
2022/11/03 03:35:44;;;;;;;4.73;1.90;;;7.70;99.90;;;;;;5043360;28;20191;-49
2022/11/03 03:38:16;;;;;;;4.57;1.60;;;7.60;99.90;;;;;;5042629;28;20215;-47
2022/11/03 03:40:46;;;;;;;3.70;1.70;;;7.60;99.90;;;;;;5027846;28;20211;-49
2022/11/03 03:43:15;;;;;;;7.47;1.60;;;7.60;99.90;;;;;;5036250;28;20227;-47
2022/11/03 03:45:44;;;;;;;5.27;1.90;;;7.60;99.90;;;;;;5037161;28;20207;-45
2022/11/03 03:48:12;;;;;;;4.07;1.87;;;7.50;99.90;;;;;;5037924;28;20204;-45
2022/11/03 03:50:42;;;;;;;4.50;1.53;;;7.50;99.90;;;;;;5043026;28;20204;-51
2022/11/03 03:53:12;;;;;;;3.87;1.50;;;7.50;99.90;;;;;;5036449;28;20254;-47
2022/11/03 03:55:41;;;;;;;5.63;2.23;;;7.50;99.90;;;;;;5037354;28;20192;-44
2022/11/03 03:58:11;;;;;;;5.97;2.23;;;7.50;99.90;;;;;;5034957;28;20943;-44
2022/11/03 04:00:40;;;;;;;2.33;1.50;;;7.50;99.90;;;;;;5037430;28;20730;-48
2022/11/03 04:03:14;;;;;;;6.77;1.83;;;7.50;99.90;;;;;;5036137;28;20222;-45
2022/11/03 04:05:41;;;;;;;8.37;1.80;;;7.50;99.90;;;;;;5039605;28;20916;-50
2022/11/03 04:08:10;;;;;;;5.77;1.70;;;7.50;99.90;;;;;;5036429;28;20272;-45
2022/11/03 04:10:37;;;;;;;4.70;1.67;;;7.50;99.90;;;;;;5033055;28;20207;-47
2022/11/03 04:24:05;;;;;;;6.23;1.53;;;7.50;99.90;;;;;;5039754;28;21042;-45
2022/11/03 04:26:32;;;;;;;5.90;1.60;;;7.50;99.90;;;;;;5043414;28;20214;-45
2022/11/03 04:29:01;;;;;;;5.50;1.40;;;7.50;99.90;;;;;;5024902;28;20238;-48
2022/11/03 04:31:35;;;;;;;8.33;1.67;;;7.50;99.90;;;;;;5037823;28;20253;-45
2022/11/03 04:34:04;;;;;;;6.17;1.90;;;7.50;99.90;;;;;;5033854;28;20336;-46
2022/11/03 04:36:31;;;;;;;3.77;1.50;;;7.50;99.90;;;;;;5043248;28;20203;-47
2022/11/03 04:38:58;;;;;;;6.93;1.63;;;7.60;99.90;;;;;;5036378;28;20207;-51
2022/11/03 04:41:30;;;;;;;2.83;1.40;;;7.60;99.90;;;;;;5043498;28;20207;-46
2022/11/03 04:43:57;;;;;;;7.50;1.60;;;7.60;99.90;;;;;;5019622;28;20218;-46
2022/11/03 04:46:25;;;;;;;6.27;1.77;;;7.60;99.90;;;;;;5037661;28;20659;-48
2022/11/03 04:48:55;;;;;;;2.50;1.27;;;7.70;99.90;;;;;;5034828;28;20208;-48
2022/11/03 04:51:25;;;;;;;6.40;1.67;;;7.70;99.90;;;;;;5039303;28;20561;-46
2022/11/03 04:53:54;;;;;;;4.43;1.50;;;7.70;99.90;;;;;;5037334;28;20246;-50
2022/11/03 04:56:24;;;;;;;7.40;1.70;;;7.70;99.90;;;;;;5043186;28;20195;-45
2022/11/03 04:58:51;;;;;;;5.47;1.73;;;7.70;99.90;;;;;;5024159;28;20300;-53
2022/11/03 05:01:21;;;;;;;7.80;1.90;;;7.70;99.90;;;;;;5027265;28;20204;-50
2022/11/03 05:03:49;;;;;;;4.77;1.90;;;7.70;99.90;;;;;;5036736;28;20222;-49
2022/11/03 05:06:19;;;;;;;4.77;1.40;;;7.70;99.90;;;;;;5034976;28;20218;-50
2022/11/03 05:08:51;;;;;;;4.67;2.00;;;7.70;99.90;;;;;;5037134;28;20196;-47
2022/11/03 05:11:22;;;;;;;5.90;1.70;;;7.80;99.90;;;;;;5040446;28;20223;-51
2022/11/03 05:13:50;;;;;;;4.20;1.47;;;7.80;99.90;;;;;;5041284;28;20723;-46
2022/11/03 05:16:18;;;;;;;3.97;1.50;;;7.80;99.90;;;;;;5026519;28;20207;-50
2022/11/03 05:18:47;;;;;;;8.87;2.13;;;7.70;99.90;;;;;;5039100;28;20377;-49
2022/11/03 05:21:18;;;;;;;8.93;1.70;;;7.80;99.90;;;;;;5039934;28;20218;-52
2022/11/03 05:23:48;;;;;;;7.03;1.90;;;7.70;99.90;;;;;;5038083;28;20222;-46
2022/11/03 05:26:19;;;;;;;2.33;1.60;;;7.70;99.90;;;;;;5041058;28;20195;-49
2022/11/03 05:28:49;;;;;;;7.97;1.70;;;7.70;99.90;;;;;;5043608;28;20203;-46
2022/11/03 05:31:21;;;;;;;4.17;1.60;;;7.70;99.90;;;;;;5027439;28;20207;-50
2022/11/03 05:33:49;;;;;;;6.73;1.80;;;7.70;99.90;;;;;;5034622;28;22682;-46
2022/11/03 05:36:22;;;;;;;5.47;1.50;;;7.70;99.90;;;;;;5032894;28;20200;-49
2022/11/03 05:38:51;;;;;;;5.10;1.60;;;7.70;99.90;;;;;;5036414;28;20238;-47
2022/11/03 05:41:22;;;;;;;3.87;1.70;;;7.70;99.90;;;;;;5030680;28;20605;-51
2022/11/03 05:43:55;;;;;;;6.23;1.83;;;7.70;99.90;;;;;;5038397;28;20587;-46
2022/11/03 05:46:23;;;;;;;8.43;1.80;;;7.80;99.90;;;;;;5027023;28;20210;-48
2022/11/03 05:48:51;;;;;;;5.00;1.40;;;7.70;99.90;;;;;;5038180;28;20384;-49
2022/11/03 05:51:22;;;;;;;7.70;1.97;;;7.70;99.90;;;;;;5036542;28;20203;-46
2022/11/03 05:53:53;;;;;;;6.20;1.63;;;7.70;99.90;;;;;;5030236;28;20219;-47
2022/11/03 05:56:23;;;;;;;5.90;1.63;;;7.80;99.90;;;;;;5045741;28;20249;-48
2022/11/03 05:58:52;;;;;;;7.43;1.60;;;7.80;99.90;;;;;;5031866;28;20225;-48
2022/11/03 06:01:24;;;;;;;5.10;1.87;;;7.80;99.90;;;;;;5038383;28;20196;-48
2022/11/03 06:03:52;;;;;;;3.60;1.47;;;7.80;99.90;;;;;;5022912;28;20223;-48
2022/11/03 06:06:24;;;;;;;6.40;2.00;;;7.80;99.90;;;;;;5029438;28;20660;-48
2022/11/03 06:08:51;;;;;;;5.17;1.70;;;7.80;99.90;;;;;;5037485;28;20653;-51
2022/11/03 06:11:27;;;;;;;6.03;1.90;;;7.80;99.90;;;;;;5037303;28;20199;-48
2022/11/03 06:13:57;;;;;;;5.80;1.70;;;7.80;99.90;;;;;;5035858;28;20227;-49
2022/11/03 06:16:36;;;;;;;6.23;2.63;;;7.80;99.90;;;;;;5041865;28;20199;-50
2022/11/03 06:19:21;;;;;;;5.97;1.80;;;7.80;99.90;;;;;;5026502;28;20301;-51
2022/11/03 06:21:51;;;;;;;7.20;1.30;;;7.80;99.90;;;;;;5032946;28;20226;-46
2022/11/03 06:24:21;;;;;;;4.67;1.73;;;7.80;99.90;;;;;;5036587;28;20223;-46
2022/11/03 06:26:49;;;;;;;8.63;1.60;;;7.80;99.90;;;;;;5039602;28;20199;-48
2022/11/03 06:29:18;;;;;;;4.87;1.57;;;7.80;99.90;;;;;;5027604;28;20286;-50
2022/11/03 06:31:48;;;;;;;4.43;1.73;;;7.80;99.90;;;;;;5033884;28;20203;-48
2022/11/03 06:34:29;;;;;;;8.87;2.00;;;7.80;99.90;;;;;;5014405;28;20230;-49
2022/11/03 06:37:02;;;;;;;11.30;3.10;;;7.80;99.90;;;;;;5037748;28;20203;-48
2022/11/03 06:39:29;;;;;;;7.00;2.07;;;7.90;99.90;;;;;;5036176;28;20191;-50
2022/11/03 06:41:55;;;;;;;6.37;2.20;;;7.90;99.90;;;;;;5043436;28;20547;-51
2022/11/03 06:44:25;;;;;;;4.63;1.70;;;7.90;99.90;;;;;;5033163;28;20222;-46
2022/11/03 06:46:54;;;;;;;7.33;1.70;;;7.90;99.90;;;;;;5043001;28;20207;-46
2022/11/03 06:49:28;;;;;;;5.70;1.90;;;7.90;99.90;;;;;;5025663;28;20195;-48
2022/11/03 06:51:55;;;;;;;5.57;1.73;;;7.90;99.90;;;;;;5036092;28;20203;-47
2022/11/03 06:54:24;;;;;;;11.07;2.20;;;7.90;99.90;;;;;;5031447;28;21766;-47
2022/11/03 06:56:50;;;;;;;8.73;1.97;;;7.90;99.90;;;;;;5044118;28;20203;-47
2022/11/03 06:59:19;;;;;;;7.37;2.17;;;7.90;99.90;;;;;;5035321;28;20219;-51
2022/11/03 07:01:54;;;;;;;8.07;2.47;;;8.00;99.90;;;;;;5034165;28;20195;-53
2022/11/03 07:04:22;;;;;;;6.10;2.17;;;8.00;99.90;;;;;;5021763;28;20223;-47
2022/11/03 07:06:50;;;;;;;4.50;1.77;;;8.00;99.90;;;;;;5028311;28;20207;-53
2022/11/03 07:09:22;;;;;;;7.43;1.97;;;8.00;99.90;;;;;;5036465;28;20195;-50
2022/11/03 07:11:55;;;;;;;9.53;2.00;;;8.00;99.90;;;;;;5034836;28;20207;-49
2022/11/03 07:14:25;;;;;;;5.17;2.00;;;8.10;99.90;;;;;;5041447;28;20215;-46
2022/11/03 07:16:56;;;;;;;9.50;2.00;;;8.10;99.90;;;;;;5030089;28;20214;-50
2022/11/03 07:19:26;;;;;;;12.77;2.40;;;8.10;99.90;;;;;;5027998;28;20241;-51
2022/11/03 07:21:55;;;;;;;6.77;2.20;;;8.10;99.90;;;;;;5018583;28;20207;-47
2022/11/03 07:24:24;;;;;;;4.57;1.53;;;8.20;99.90;;;;;;5029720;28;20220;-47
2022/11/03 07:26:58;;;;;;;5.70;2.17;;;8.20;99.90;;;;;;5024108;28;20204;-46
2022/11/03 07:29:28;;;;;;;4.87;1.60;;;8.20;99.90;;;;;;5035181;28;20198;-48
2022/11/03 07:31:58;;;;;;;2.67;1.57;;;8.30;99.90;;;;;;5036217;28;20187;-47
2022/11/03 07:34:29;;;;;;;5.97;2.30;;;8.30;99.90;;;;;;5033027;28;20229;-47
2022/11/03 07:36:57;;;;;;;5.67;1.80;;;8.30;99.90;;;;;;5016079;28;20211;-50
2022/11/03 07:39:24;;;;;;;3.40;1.53;;;8.30;99.90;;;;;;5031216;28;21339;-47
2022/11/03 07:41:53;;;;;;;4.23;1.73;;;8.40;99.90;;;;;;5033678;28;20200;-46
2022/11/03 07:44:20;;;;;;;6.17;2.20;;;8.40;99.90;;;;;;5032663;28;20764;-48
2022/11/03 07:46:49;;;;;;;6.17;1.70;;;8.40;99.90;;;;;;5023347;28;20198;-48
2022/11/03 07:49:25;;;;;;;6.03;1.77;;;8.50;99.90;;;;;;5033999;28;20196;-48
2022/11/03 07:51:53;;;;;;;4.97;1.90;;;8.50;99.90;;;;;;5018746;28;20214;-47
2022/11/03 07:54:22;;;;;;;10.27;1.83;;;8.50;99.90;;;;;;5021399;28;20311;-50
2022/11/03 07:56:53;;;;;;;7.90;1.77;;;8.50;99.90;;;;;;5031729;28;20207;-47
2022/11/03 07:59:23;;;;;;;5.20;1.80;;;8.50;99.90;;;;;;5031646;28;20751;-50
2022/11/03 08:01:52;;;;;;;5.63;1.77;;;8.60;99.90;;;;;;5029020;28;20207;-46
2022/11/03 08:04:21;;;;;;;4.60;1.57;;;8.60;99.90;;;;;;5033894;28;20231;-50
2022/11/03 08:06:48;;;;;;;6.57;2.03;;;8.60;99.90;;;;;;5026079;28;20215;-52
2022/11/03 08:09:15;;;;;;;6.47;1.97;;;8.60;99.90;;;;;;5033272;28;20722;-52
2022/11/03 08:11:42;;;;;;;7.63;2.20;;;8.70;99.90;;;;;;5033239;28;20211;-48
2022/11/03 08:14:10;;;;;;;5.83;2.00;;;8.70;99.90;;;;;;5026497;28;20231;-50
2022/11/03 08:16:37;;;;;;;5.70;2.33;;;8.70;99.90;;;;;;5025418;28;20202;-47
2022/11/03 08:19:04;;;;;;;4.13;1.47;;;8.70;99.90;;;;;;5036132;28;20234;-47
2022/11/03 08:21:31;;;;;;;5.23;1.87;;;8.80;99.90;;;;;;5021643;28;20222;-44
2022/11/03 08:23:58;;;;;;;4.03;1.70;;;8.80;99.90;;;;;;5031696;28;20223;-44
2022/11/03 08:26:24;;;;;;;6.10;2.03;;;8.90;99.90;;;;;;5032523;28;20203;-44
2022/11/03 08:28:51;;;;;;;6.87;1.77;;;8.90;99.90;;;;;;5041121;28;20203;-44
2022/11/03 08:31:20;;;;;;;4.53;1.73;;;9.00;99.90;;;;;;5024670;28;20203;-46
2022/11/03 08:33:46;;;;;;;8.83;1.77;;;9.00;99.90;;;;;;5028320;28;20234;-46
2022/11/03 08:36:13;;;;;;;3.23;1.77;;;9.10;99.90;;;;;;5023012;28;20195;-48
2022/11/03 08:38:40;;;;;;;6.20;2.20;;;9.10;99.90;;;;;;5019157;28;20219;-49
2022/11/03 08:41:06;;;;;;;9.20;2.00;;;9.20;99.90;;;;;;5033622;28;20214;-47
2022/11/03 08:43:33;;;;;;;4.23;1.83;;;9.30;99.90;;;;;;5026587;28;20298;-47
2022/11/03 08:46:00;;;;;;;5.23;2.40;;;9.30;99.90;;;;;;5031435;28;20206;-48
2022/11/03 08:48:28;;;;;;;6.23;1.97;;;9.40;99.90;;;;;;5030265;28;20282;-46
2022/11/03 08:50:55;;;;;;;9.77;1.90;;;9.40;99.90;;;;;;5039774;28;20219;-47
2022/11/03 08:53:23;;;;;;;5.47;1.70;;;9.50;99.90;;;;;;5012264;28;20234;-50
2022/11/03 08:55:50;;;;;;;7.43;2.00;;;9.60;99.90;;;;;;5030648;28;20227;-49
2022/11/03 08:58:17;;;;;;;6.33;1.53;;;9.60;99.90;;;;;;5030469;28;20223;-48
2022/11/03 09:00:44;;;;;;;7.40;1.77;;;9.70;99.90;;;;;;5030311;28;20209;-50
2022/11/03 09:03:10;;;;;;;6.20;1.90;;;9.70;99.90;;;;;;5028043;28;20438;-47
2022/11/03 09:05:39;;;;;;;6.07;2.10;;;9.80;99.90;;;;;;5035114;28;20199;-48
2022/11/03 09:08:06;;;;;;;4.77;2.20;;;9.90;99.90;;;;;;5014114;28;20329;-49
2022/11/03 09:10:33;;;;;;;4.00;1.70;;;9.90;99.90;;;;;;5031656;28;20207;-49
2022/11/03 09:13:01;;;;;;;7.70;1.60;;;10.00;99.90;;;;;;5033922;28;20227;-52
2022/11/03 09:15:28;;;;;;;3.87;1.60;;;10.00;99.90;;;;;;5030903;28;20199;-51
2022/11/03 09:17:54;;;;;;;5.33;1.60;;;10.10;99.90;;;;;;5030077;28;20210;-47
2022/11/03 09:20:21;;;;;;;5.00;2.00;;;10.10;99.90;;;;;;5030359;28;21837;-51
2022/11/03 09:22:49;;;;;;;6.83;2.10;;;10.20;99.90;;;;;;5029024;28;20215;-50
2022/11/03 09:25:16;;;;;;;4.33;1.80;;;10.20;99.90;;;;;;5026858;28;20427;-46
2022/11/03 09:27:43;;;;;;;6.93;2.00;;;10.30;99.90;;;;;;5030667;28;20222;-50
2022/11/03 09:30:10;;;;;;;10.80;2.47;;;10.40;99.90;;;;;;5024835;28;20199;-46
2022/11/03 09:32:38;;;;;;;5.87;1.60;;;10.50;99.90;;;;;;5026519;28;20222;-49
2022/11/03 09:35:06;;;;;;;5.70;1.73;;;10.60;99.90;;;;;;5026304;28;20198;-49
2022/11/03 09:37:33;;;;;;;8.53;1.97;;;10.60;99.90;;;;;;5032919;28;20203;-47
2022/11/03 09:40:02;;;;;;;9.47;2.07;;;10.70;99.90;;;;;;5018937;28;20219;-45
2022/11/03 09:42:33;;;;;;;4.80;1.73;;;10.80;99.90;;;;;;5027235;28;20679;-47
2022/11/03 09:45:01;;;;;;;4.90;1.80;;;10.90;99.90;;;;;;5019293;28;20208;-46
2022/11/03 09:47:32;;;;;;;5.43;2.10;;;10.90;99.90;;;;;;5039667;28;20302;-47
2022/11/03 09:49:59;;;;;;;5.40;2.00;;;10.90;99.90;;;;;;5023694;28;20215;-50
2022/11/03 09:52:25;;;;;;;6.30;2.20;;;11.00;99.90;;;;;;5038750;28;20253;-46
2022/11/03 09:54:55;;;;;;;5.23;1.80;;;11.10;99.90;;;;;;5016434;28;20700;-47
2022/11/03 09:57:23;;;;;;;5.63;1.80;;;11.10;99.90;;;;;;5029747;28;20200;-47
2022/11/03 09:59:51;;;;;;;10.63;2.93;;;11.20;99.90;;;;;;5037925;28;20227;-51
2022/11/03 10:02:23;;;;;;;5.63;1.93;;;11.20;99.90;;;;;;5033494;28;20208;-47
2022/11/03 10:04:52;;;;;;;6.87;1.67;;;11.30;99.90;;;;;;5034618;28;20233;-48
2022/11/03 10:07:19;;;;;;;5.70;1.90;;;11.30;99.90;;;;;;5040716;28;20207;-45
2022/11/03 10:09:49;;;;;;;7.30;1.67;;;11.30;99.90;;;;;;5018736;28;20272;-48
2022/11/03 10:12:16;;;;;;;4.30;1.67;;;11.40;99.90;;;;;;5041057;28;20270;-45
2022/11/03 10:14:45;;;;;;;4.63;1.70;;;11.40;99.90;;;;;;5034126;28;20713;-48
2022/11/03 10:17:16;;;;;;;4.63;1.80;;;11.50;99.90;;;;;;5029076;28;20282;-47
2022/11/03 10:19:43;;;;;;;4.77;1.87;;;11.50;99.90;;;;;;5035315;28;20301;-48
2022/11/03 10:22:10;;;;;;;6.33;2.10;;;11.60;99.90;;;;;;5036942;28;20253;-45
2022/11/03 10:24:37;;;;;;;5.00;1.83;;;;;;;;;;5024194;28;20219;-46
2022/11/03 10:27:19;;;;;;;8.10;2.47;;;11.70;99.90;;;;;;5027408;28;20192;-46
2022/11/03 10:30:04;;;;;;;5.30;1.80;;;11.70;99.90;;;;;;5028536;28;20700;-47
2022/11/03 10:32:33;;;;;;;7.63;2.00;;;11.80;99.90;;;;;;5026158;28;20238;-45
2022/11/03 10:35:00;;;;;;;6.97;2.13;;;11.80;99.90;;;;;;5022694;28;20207;-45
2022/11/03 10:37:28;;;;;;;5.97;1.63;;;11.90;99.90;;;;;;5038630;28;20217;-49
2022/11/03 10:39:57;;;;;;;3.33;1.63;;;11.90;99.90;;;;;;5027900;28;20228;-49
2022/11/03 10:42:25;;;;;;;5.90;2.20;;;11.90;99.90;;;;;;5039167;28;20193;-47
2022/11/03 10:44:54;;;;;;;5.10;2.03;;;12.00;99.90;;;;;;5031670;28;20227;-47
2022/11/03 10:47:25;;;;;;;5.40;1.87;;;12.10;99.90;;;;;;5037378;28;20229;-46
2022/11/03 10:49:53;;;;;;;7.07;1.73;;;12.10;99.90;;;;;;5037309;28;20199;-50
2022/11/03 10:52:22;;;;;;;6.67;2.07;;;12.10;99.90;;;;;;5034123;28;20215;-45
2022/11/03 10:54:50;;;;;;;4.73;1.73;;;12.20;99.90;;;;;;5027524;28;20216;-47
2022/11/03 10:57:17;;;;;;;3.77;1.70;;;12.20;99.90;;;;;;5033920;28;20203;-47
2022/11/03 10:59:47;;;;;;;5.77;1.60;;;12.30;99.90;;;;;;5039777;28;20211;-47
2022/11/03 11:02:19;;;;;;;7.33;2.30;;;12.30;99.90;;;;;;5039003;28;20210;-47
2022/11/03 11:04:47;;;;;;;7.47;2.07;;;12.40;99.90;;;;;;5024185;28;20223;-48
2022/11/03 11:07:25;;;;;;;5.90;1.83;;;12.40;99.90;;;;;;5029110;28;20294;-46
2022/11/03 11:09:53;;;;;;;5.03;1.70;;;12.50;99.90;;;;;;5024061;28;20199;-48
2022/11/03 11:12:23;;;;;;;4.77;1.83;;;12.60;99.90;;;;;;5024425;28;20310;-49
2022/11/03 11:14:55;;;;;;;5.40;1.83;;;12.70;99.90;;;;;;5025625;28;20226;-47
2022/11/03 11:17:43;;;;;;;4.23;2.00;;;12.80;99.90;;;;;;5039155;28;20668;-47
2022/11/03 11:20:32;;;;;;;4.43;1.50;;;12.80;99.90;;;;;;5035606;28;20215;-45
2022/11/03 11:23:28;;;;;;;3.90;1.93;;;12.90;99.90;;;;;;5031074;28;20229;-50
2022/11/03 11:26:15;;;;;;;3.97;1.50;;;13.00;99.90;;;;;;5024156;28;20203;-50
2022/11/03 11:28:45;;;;;;;5.73;1.93;;;13.00;99.90;;;;;;5033623;28;20630;-50
2022/11/03 11:31:30;;;;;;;3.70;1.60;;;13.10;99.90;;;;;;5031300;28;20191;-47
2022/11/03 11:34:35;;;;;;;6.40;1.70;;;13.20;99.90;;;;;;5022953;28;20673;-49
2022/11/03 11:37:35;;;;;;;5.67;1.80;;;13.30;99.90;;;;;;5033049;28;20191;-47
2022/11/03 11:40:11;;;;;;;3.70;1.90;;;13.40;99.90;;;;;;5029434;28;20223;-48
2022/11/03 11:43:17;;;;;;;6.47;1.60;;;13.40;99.90;;;;;;5016699;28;20214;-46
2022/11/03 11:46:24;;;;;;;5.27;1.83;;;13.50;99.90;;;;;;5028491;28;20222;-51
2022/11/03 11:49:14;;;;;;;3.87;1.30;;;13.50;99.90;;;;;;5016919;28;20194;-47
2022/11/03 11:51:41;;;;;;;4.73;1.70;;;13.50;99.90;;;;;;5038865;28;20195;-48
2022/11/03 11:54:17;;;;;;;8.47;1.97;;;13.50;99.90;;;;;;5031545;28;20219;-46
2022/11/03 11:56:45;;;;;;;5.47;1.47;;;13.50;99.90;;;;;;5018602;28;20199;-48
2022/11/03 11:59:22;;;;;;;5.83;1.60;;;13.60;99.90;;;;;;5022944;28;20219;-49
2022/11/03 12:01:51;;;;;;;8.63;1.70;;;13.50;99.90;;;;;;5017018;28;20211;-51
2022/11/03 12:04:22;;;;;;;4.00;1.40;;;13.50;99.90;;;;;;5035252;28;20215;-47
2022/11/03 12:06:48;;;;;;;3.70;1.60;;;13.50;99.90;;;;;;5034161;28;20253;-47
2022/11/03 12:09:18;;;;;;;6.20;1.50;;;13.50;99.90;;;;;;5030172;28;20204;-49
2022/11/03 12:11:46;;;;;;;2.90;1.50;;;13.60;99.90;;;;;;5030546;28;20714;-50
2022/11/03 12:14:24;;;;;;;3.43;1.30;;;13.60;99.90;;;;;;5023116;28;20223;-49
2022/11/03 12:16:50;;;;;;;6.53;1.97;;;13.60;99.90;;;;;;5025751;28;20496;-48
2022/11/03 12:19:38;;;;;;;3.57;1.60;;;13.70;99.90;;;;;;5034803;28;20621;-46
2022/11/03 12:22:06;;;;;;;6.20;1.90;;;13.70;99.90;;;;;;5030585;28;20322;-47
2022/11/03 12:24:47;;;;;;;3.47;1.47;;;13.70;99.90;;;;;;5030852;28;20223;-51
2022/11/03 12:27:37;;;;;;;5.87;1.57;;;13.70;99.90;;;;;;5035911;28;20654;-52
2022/11/03 12:30:07;;;;;;;6.07;1.70;;;13.70;99.90;;;;;;5018427;28;20204;-50
2022/11/03 12:32:34;;;;;;;4.87;1.50;;;13.70;99.90;;;;;;5028133;28;20204;-52
2022/11/03 12:35:00;;;;;;;7.93;1.90;;;13.70;99.90;;;;;;5035173;28;20208;-49
2022/11/03 12:37:27;;;;;;;3.97;1.80;;;13.70;99.90;;;;;;5036665;28;20479;-48
2022/11/03 12:39:55;;;;;;;4.53;1.63;;;13.70;99.90;;;;;;5031150;28;20754;-47
2022/11/03 12:42:23;;;;;;;7.40;1.60;;;13.80;99.90;;;;;;5026744;28;20936;-48
2022/11/03 12:44:50;;;;;;;4.13;1.50;;;13.90;99.90;;;;;;5022969;28;20215;-46
2022/11/03 12:47:17;;;;;;;3.83;1.40;;;14.00;99.90;;;;;;5026293;28;20589;-51
2022/11/03 12:49:44;;;;;;;6.90;1.90;;;14.00;99.90;;;;;;5024001;28;20195;-51
2022/11/03 12:52:10;;;;;;;8.10;1.77;;;14.10;99.90;;;;;;5035803;28;20206;-46
2022/11/03 12:54:38;;;;;;;3.57;1.47;;;14.10;99.90;;;;;;5025521;28;20223;-49
2022/11/03 12:57:06;;;;;;;6.83;2.63;;;14.10;99.90;;;;;;5028843;28;20199;-49
2022/11/03 12:59:33;;;;;;;5.57;1.37;;;14.10;99.90;;;;;;5013425;28;20215;-49
2022/11/03 13:01:59;;;;;;;4.87;2.10;;;14.10;99.90;;;;;;5033938;28;20191;-46
2022/11/03 13:04:26;;;;;;;6.83;1.60;;;14.00;99.90;;;;;;5023647;28;20211;-46
2022/11/03 13:06:53;;;;;;;6.23;1.87;;;14.00;99.90;;;;;;5041582;28;20207;-48
2022/11/03 13:09:20;;;;;;;4.50;1.73;;;14.00;99.90;;;;;;5030678;28;20203;-52
2022/11/03 13:14:33;;;;;;;6.33;1.57;;;14.00;99.90;;;;;;5012883;28;24817;-47
2022/11/03 13:17:02;;;;;;;8.30;1.80;;;14.00;99.90;;;;;;5034457;28;20191;-50
2022/11/03 13:19:29;;;;;;;6.77;1.90;;;14.00;99.90;;;;;;5030141;28;20215;-47
2022/11/03 13:21:56;;;;;;;5.00;1.73;;;13.90;99.90;;;;;;5025898;28;20215;-48
2022/11/03 13:24:23;;;;;;;7.97;1.50;;;13.90;99.90;;;;;;5030037;28;20274;-50
2022/11/03 13:26:50;;;;;;;8.40;1.40;;;13.90;99.90;;;;;;5033572;28;20206;-48